Time;durP1;ratioP1;P1;durP2;ratioP2;P2;SDS_P1;SDS_P2;PMS_P1;PMS_P2;Temp;Humidity;BMP_temperature;BMP_pressure;BME280_temperature;BME280_humidity;BME280_pressure;Samples;Min_cycle;Max_cycle;Signal;HPM_P1;HPM_P2
2023/10/08 00:07:42;;;;;;;19.75;5.45;;;18.00;54.10;;;;;;20261282;29;20080;-84
2023/10/08 00:17:45;;;;;;;16.13;5.05;;;18.00;52.40;;;;;;20267008;29;20052;-83
2023/10/08 00:27:49;;;;;;;16.63;5.28;;;18.00;63.80;;;;;;20253301;29;20049;-84
2023/10/08 00:37:50;;;;;;;14.60;4.55;;;18.20;60.10;;;;;;20248295;29;20487;-83
2023/10/08 00:47:54;;;;;;;17.73;5.00;;;18.10;66.00;;;;;;20258366;29;20729;-83
2023/10/08 00:57:58;;;;;;;12.07;4.70;;;18.00;75.50;;;;;;20239985;29;20049;-83
2023/10/08 01:07:58;;;;;;;11.68;4.88;;;17.90;82.80;;;;;;20253508;29;20048;-82
2023/10/08 01:18:00;;;;;;;12.88;4.97;;;17.80;96.10;;;;;;20261099;29;20044;-82
2023/10/08 01:28:01;;;;;;;13.38;4.85;;;17.70;96.10;;;;;;20242542;29;20062;-84
2023/10/08 01:38:03;;;;;;;14.70;5.28;;;17.60;98.10;;;;;;20239110;29;20536;-84
2023/10/08 01:48:05;;;;;;;15.10;4.50;;;17.50;99.90;;;;;;20237574;29;20064;-83
2023/10/08 01:58:06;;;;;;;12.43;4.85;;;17.50;99.90;;;;;;20335147;29;20060;-82
2023/10/08 02:08:06;;;;;;;17.58;5.53;;;17.40;99.90;;;;;;20340656;29;20071;-82
2023/10/08 02:18:08;;;;;;;18.42;6.50;;;17.40;99.90;;;;;;20305348;29;20052;-82
2023/10/08 02:28:09;;;;;;;16.13;5.47;;;17.50;99.90;;;;;;20251764;29;20789;-83
2023/10/08 03:12:12;;;;;;;14.90;6.43;;;17.30;99.90;;;;;;20905220;27;21119;-46
2023/10/08 03:22:12;;;;;;;15.07;6.40;;;17.20;99.90;;;;;;20821523;28;20071;-45
2023/10/08 03:32:17;;;;;;;14.68;5.72;;;17.20;99.90;;;;;;20811858;28;20456;-45
2023/10/08 03:42:23;;;;;;;14.57;5.95;;;17.10;99.90;;;;;;20811653;28;20172;-46
2023/10/08 03:52:25;;;;;;;16.30;6.97;;;16.90;99.90;;;;;;20811597;28;21483;-45
2023/10/08 04:02:39;;;;;;;14.88;7.43;;;17.00;99.90;;;;;;20833822;28;20136;-45
2023/10/08 04:12:43;;;;;;;19.17;7.97;;;17.00;99.90;;;;;;20876470;28;20128;-45
2023/10/08 04:22:44;;;;;;;16.13;6.60;;;17.00;99.90;;;;;;20794734;28;20046;-45
2023/10/08 04:32:46;;;;;;;13.63;5.55;;;17.00;99.90;;;;;;20734114;28;20044;-46
2023/10/08 04:42:48;;;;;;;12.88;4.88;;;17.00;99.90;;;;;;20753696;28;20088;-46
2023/10/08 04:52:58;;;;;;;11.50;4.88;;;16.90;99.90;;;;;;20755791;28;20033;-46
2023/10/08 05:03:10;;;;;;;21.80;6.43;;;16.60;99.90;;;;;;20797047;28;20044;-46
2023/10/08 05:44:24;;;;;;;8.45;3.15;;;15.80;99.90;;;;;;20721845;28;20069;-46
2023/10/08 06:04:53;;;;;;;10.15;2.72;;;15.40;99.90;;;;;;20741446;28;20532;-46
2023/10/08 06:15:07;;;;;;;7.80;2.55;;;15.40;71.60;;;;;;20735019;28;20056;-45
2023/10/08 06:25:18;;;;;;;10.45;3.50;;;15.20;61.40;;;;;;20739012;28;20046;-46
2023/10/08 06:35:18;;;;;;;6.07;2.83;;;15.10;73.80;;;;;;20783772;28;20041;-45
2023/10/08 06:45:22;;;;;;;10.05;2.90;;;15.10;73.30;;;;;;20754538;28;20044;-46
2023/10/08 06:55:26;;;;;;;14.65;2.55;;;15.10;58.10;;;;;;20821627;28;20029;-46
2023/10/08 07:05:28;;;;;;;11.80;2.92;;;15.00;25.80;;;;;;20816942;28;20405;-45
2023/10/08 07:15:30;;;;;;;7.00;1.80;;;14.90;19.90;;;;;;20826709;28;20420;-43
2023/10/08 07:25:36;;;;;;;6.75;1.73;;;14.80;22.90;;;;;;20828224;28;20107;-45
2023/10/08 07:35:39;;;;;;;6.17;1.80;;;14.90;19.80;;;;;;20820486;28;20041;-46
2023/10/08 07:45:43;;;;;;;3.70;1.25;;;14.90;11.90;;;;;;20821172;28;20041;-45
2023/10/08 07:55:46;;;;;;;3.85;1.48;;;15.00;8.90;;;;;;20843772;28;20091;-45
2023/10/08 08:05:48;;;;;;;5.38;1.50;;;15.00;4.00;;;;;;20838131;28;20524;-45
2023/10/08 08:15:50;;;;;;;2.95;1.52;;;15.10;7.20;;;;;;20799035;28;20048;-45
2023/10/08 08:26:11;;;;;;;2.67;1.42;;;15.20;1.00;;;;;;20837281;28;20048;-45
2023/10/08 08:36:11;;;;;;;3.30;1.33;;;15.30;1.00;;;;;;20827962;28;20489;-45
2023/10/08 08:46:12;;;;;;;3.30;1.50;;;15.40;1.00;;;;;;20831249;28;20040;-45
2023/10/08 08:56:13;;;;;;;3.22;1.60;;;15.40;1.00;;;;;;20826122;28;20123;-45
2023/10/08 09:06:13;;;;;;;4.03;1.95;;;15.50;1.00;;;;;;20827958;28;20065;-45
2023/10/08 09:16:15;;;;;;;3.63;1.83;;;15.60;1.00;;;;;;20803701;28;20045;-45
2023/10/08 09:26:23;;;;;;;5.60;2.30;;;15.90;1.00;;;;;;20826470;28;20838;-45
2023/10/08 09:36:31;;;;;;;5.63;2.70;;;16.10;1.00;;;;;;20816657;28;20123;-46
2023/10/08 09:46:34;;;;;;;3.92;2.28;;;16.10;1.00;;;;;;20839266;28;20134;-45
2023/10/08 09:56:36;;;;;;;5.45;2.60;;;16.10;1.00;;;;;;20839169;28;20606;-45
2023/10/08 10:06:37;;;;;;;5.78;2.30;;;16.10;1.00;;;;;;20841000;28;20045;-46
2023/10/08 10:16:41;;;;;;;5.68;2.80;;;16.20;1.00;;;;;;20833243;28;20037;-46
2023/10/08 10:26:46;;;;;;;4.70;2.47;;;16.10;1.00;;;;;;20832947;28;20041;-45
2023/10/08 10:36:54;;;;;;;4.30;2.45;;;16.10;1.00;;;;;;20837889;28;20162;-45
2023/10/08 10:57:18;;;;;;;7.00;2.50;;;16.20;1.00;;;;;;20830864;28;20127;-46
2023/10/08 11:17:24;;;;;;;7.25;2.40;;;16.20;1.00;;;;;;20772959;28;20483;-43
2023/10/08 11:27:37;;;;;;;6.53;2.55;;;16.30;1.00;;;;;;20790170;28;20087;-43
2023/10/08 11:37:38;;;;;;;5.28;2.92;;;16.50;1.00;;;;;;20798488;28;20037;-43
2023/10/08 11:47:42;;;;;;;5.20;2.85;;;16.60;1.00;;;;;;20805589;28;20038;-43
2023/10/08 11:57:45;;;;;;;7.25;3.75;;;16.60;1.00;;;;;;20782151;28;20029;-43
2023/10/08 12:07:47;;;;;;;5.72;3.33;;;16.90;1.00;;;;;;20771148;28;20060;-43
2023/10/08 12:28:08;;;;;;;5.10;3.58;;;17.20;1.00;;;;;;20776623;28;20042;-43
2023/10/08 12:38:09;;;;;;;7.72;4.03;;;17.40;1.00;;;;;;20776712;28;20056;-43
2023/10/08 12:48:09;;;;;;;7.55;4.30;;;17.30;1.00;;;;;;20777194;28;20504;-43
2023/10/08 12:58:10;;;;;;;7.40;4.50;;;17.30;1.00;;;;;;20776653;28;20251;-43
2023/10/08 13:08:13;;;;;;;6.43;3.57;;;17.50;1.00;;;;;;20766471;28;20112;-45
2023/10/08 13:18:14;;;;;;;8.05;3.42;;;17.60;1.00;;;;;;20748613;28;20501;-42
2023/10/08 13:28:14;;;;;;;7.20;3.20;;;17.30;1.00;;;;;;20763454;28;20597;-42
2023/10/08 13:38:19;;;;;;;8.10;2.83;;;17.40;1.00;;;;;;20755457;28;20440;-42
2023/10/08 13:48:20;;;;;;;7.68;2.83;;;17.50;1.00;;;;;;20750097;28;20049;-43
2023/10/08 13:58:24;;;;;;;8.77;2.90;;;17.40;1.00;;;;;;20721248;28;20144;-42
2023/10/08 14:08:28;;;;;;;6.72;3.53;;;17.40;1.00;;;;;;20756300;28;20074;-42
2023/10/08 14:18:37;;;;;;;6.75;3.20;;;17.30;1.00;;;;;;20743480;28;20037;-42
2023/10/08 14:28:40;;;;;;;6.47;2.60;;;17.30;1.00;;;;;;20753223;28;20053;-42
2023/10/08 14:49:02;;;;;;;6.45;3.10;;;17.20;1.00;;;;;;20769421;28;20068;-43
2023/10/08 14:59:03;;;;;;;4.60;2.60;;;17.30;1.00;;;;;;20727899;28;20108;-43
2023/10/08 15:09:05;;;;;;;5.85;2.90;;;17.20;1.00;;;;;;20738826;28;20052;-42
2023/10/08 15:19:05;;;;;;;7.20;3.25;;;17.30;1.00;;;;;;20745079;28;20034;-42
2023/10/08 15:29:06;;;;;;;6.15;3.92;;;17.20;1.00;;;;;;20746045;28;20137;-42
2023/10/08 15:39:09;;;;;;;5.40;2.85;;;17.30;1.00;;;;;;20759997;28;20038;-43
2023/10/08 15:49:11;;;;;;;5.07;2.67;;;17.20;1.00;;;;;;20744333;28;20037;-42
2023/10/08 15:59:11;;;;;;;6.95;4.00;;;17.10;1.00;;;;;;20784285;28;20526;-43
2023/10/08 16:09:12;;;;;;;5.43;2.45;;;17.10;1.00;;;;;;20784674;28;20042;-42
2023/10/08 16:19:13;;;;;;;5.70;2.70;;;17.00;1.00;;;;;;20766914;28;20124;-42
2023/10/08 16:29:14;;;;;;;5.30;2.72;;;17.00;1.00;;;;;;20755916;28;20269;-42
2023/10/08 16:39:17;;;;;;;8.13;2.88;;;17.00;1.00;;;;;;20755365;28;20041;-42
2023/10/08 16:49:20;;;;;;;5.63;2.97;;;16.90;1.00;;;;;;20766066;28;20091;-42
2023/10/08 16:59:20;;;;;;;8.48;3.30;;;16.90;1.00;;;;;;20771405;28;20038;-43
2023/10/08 17:09:22;;;;;;;7.85;3.08;;;16.90;1.00;;;;;;20763864;28;20472;-42
2023/10/08 17:19:23;;;;;;;7.43;3.20;;;16.80;1.00;;;;;;20772174;28;20049;-42
2023/10/08 17:29:25;;;;;;;8.20;4.60;;;16.60;1.00;;;;;;20772531;28;20033;-42
2023/10/08 17:39:27;;;;;;;7.53;4.25;;;16.70;1.00;;;;;;20757197;28;20037;-43
2023/10/08 17:49:31;;;;;;;10.82;5.65;;;16.60;1.00;;;;;;20772371;28;20064;-43
2023/10/08 17:59:32;;;;;;;9.18;5.97;;;16.40;1.00;;;;;;20769981;28;20496;-43
2023/10/08 18:09:33;;;;;;;8.57;5.63;;;16.30;2.10;;;;;;20773862;28;20541;-43
2023/10/08 18:19:35;;;;;;;15.15;9.70;;;16.20;7.40;;;;;;20770620;28;20366;-42
2023/10/08 18:29:36;;;;;;;12.30;8.52;;;16.10;15.70;;;;;;20758878;28;20416;-42
2023/10/08 18:39:36;;;;;;;19.38;12.32;;;15.90;20.40;;;;;;20752643;28;20029;-42
2023/10/08 18:49:37;;;;;;;12.90;8.73;;;15.80;34.20;;;;;;20757978;28;20508;-42
2023/10/08 18:59:37;;;;;;;18.15;11.20;;;15.70;34.90;;;;;;20755722;28;20038;-42
2023/10/08 19:09:38;;;;;;;17.15;11.68;;;15.80;36.70;;;;;;20755527;28;20068;-42
2023/10/08 19:19:39;;;;;;;16.92;11.27;;;15.80;34.70;;;;;;20753188;28;20034;-42
2023/10/08 19:29:39;;;;;;;18.95;12.98;;;15.70;48.90;;;;;;20752228;28;20072;-42
2023/10/08 19:39:40;;;;;;;21.05;13.35;;;15.50;63.60;;;;;;20736136;28;20049;-42
2023/10/08 19:49:41;;;;;;;27.65;15.50;;;15.30;73.40;;;;;;20752545;28;21010;-42
2023/10/08 19:59:42;;;;;;;27.85;16.02;;;15.40;81.30;;;;;;20752860;28;20034;-42
2023/10/08 20:09:45;;;;;;;28.52;16.77;;;15.40;88.20;;;;;;20767629;28;20064;-42
2023/10/08 20:19:45;;;;;;;29.80;17.88;;;15.50;90.90;;;;;;20775094;28;20039;-45
2023/10/08 20:29:46;;;;;;;36.22;20.20;;;15.50;93.00;;;;;;20758107;28;20636;-45
2023/10/08 20:39:48;;;;;;;39.30;20.50;;;15.40;89.00;;;;;;20763062;28;20392;-45
2023/10/08 20:49:48;;;;;;;34.92;19.38;;;15.30;96.90;;;;;;20766553;28;20057;-45
2023/10/08 20:59:49;;;;;;;31.55;19.08;;;15.10;99.90;;;;;;20764213;28;20052;-45
2023/10/08 21:09:50;;;;;;;40.10;21.42;;;14.90;99.90;;;;;;20761718;28;20080;-45
2023/10/08 21:19:51;;;;;;;41.50;22.40;;;14.70;99.90;;;;;;20779801;28;20041;-45
2023/10/08 21:29:51;;;;;;;50.38;26.27;;;14.80;99.90;;;;;;20763384;28;20567;-45
2023/10/08 21:39:52;;;;;;;46.42;25.85;;;14.90;99.90;;;;;;20760535;28;20153;-45
2023/10/08 21:49:52;;;;;;;50.55;26.92;;;15.00;99.90;;;;;;20758530;28;20072;-45
2023/10/08 21:59:53;;;;;;;52.38;26.45;;;15.10;99.90;;;;;;20760890;28;20144;-45
2023/10/08 22:09:53;;;;;;;48.03;25.35;;;15.00;99.90;;;;;;20753456;28;20052;-45
2023/10/08 22:19:55;;;;;;;48.90;27.00;;;15.20;99.90;;;;;;20761343;28;20096;-45
2023/10/08 22:29:56;;;;;;;45.63;26.15;;;15.20;99.90;;;;;;20757538;28;20429;-45
2023/10/08 22:39:58;;;;;;;49.00;26.67;;;15.30;99.90;;;;;;20743789;28;20133;-42
2023/10/08 22:50:17;;;;;;;46.30;24.98;;;15.30;99.90;;;;;;20760114;28;20782;-43
2023/10/08 23:00:26;;;;;;;40.20;22.10;;;15.30;99.90;;;;;;20772593;28;20132;-42
2023/10/08 23:10:26;;;;;;;38.67;22.60;;;15.20;99.90;;;;;;20748890;28;20061;-43
2023/10/08 23:20:27;;;;;;;43.50;24.52;;;15.20;99.90;;;;;;20761594;28;20998;-42
2023/10/08 23:30:27;;;;;;;40.08;24.63;;;15.20;99.90;;;;;;20766556;28;20050;-42
2023/10/08 23:40:30;;;;;;;43.78;25.02;;;15.20;99.90;;;;;;20764513;28;20054;-42
2023/10/08 23:50:32;;;;;;;43.13;23.75;;;15.30;99.90;;;;;;20765920;28;20044;-42
